Time;durP1;ratioP1;P1;durP2;ratioP2;P2;SDS_P1;SDS_P2;PMS_P1;PMS_P2;Temp;Humidity;BMP_temperature;BMP_pressure;BME280_temperature;BME280_humidity;BME280_pressure;Samples;Min_cycle;Max_cycle;Signal;HPM_P1;HPM_P2
2022/12/20 00:00:22;;;;;;;8.90;4.50;;;;;;;3.65;79.31;100832.88;2041850;29;20671;-61
2022/12/20 00:01:30;;;;;;;8.10;3.70;;;;;;;3.66;78.80;100832.66;2034500;29;20295;-61
2022/12/20 00:02:35;;;;;;;10.60;3.90;;;;;;;3.63;79.04;100834.97;2041989;29;20298;-61
2022/12/20 00:03:38;;;;;;;6.80;3.60;;;;;;;3.64;79.29;100831.28;2034120;29;20299;-61
2022/12/20 00:04:40;;;;;;;7.47;4.40;;;;;;;3.65;79.00;100831.03;2034427;29;20296;-60
2022/12/20 00:05:44;;;;;;;8.27;4.20;;;;;;;3.67;79.45;100826.31;2034194;29;20297;-61
2022/12/20 00:06:49;;;;;;;8.93;3.73;;;;;;;3.68;79.16;100821.78;2042201;29;20813;-61
2022/12/20 00:07:52;;;;;;;8.23;3.87;;;;;;;3.70;79.21;100827.72;2042117;29;20295;-61
2022/12/20 00:09:00;;;;;;;10.17;3.77;;;;;;;3.69;78.95;100831.41;2034409;29;20780;-61
2022/12/20 00:10:06;;;;;;;7.00;3.58;;;;;;;3.70;78.91;100830.38;2041797;29;20698;-61
2022/12/20 00:11:10;;;;;;;10.63;3.90;;;;;;;3.72;79.25;100831.78;2041820;29;20294;-61
2022/12/20 00:12:17;;;;;;;7.93;3.30;;;;;;;3.71;79.01;100821.34;2041661;29;20886;-60
2022/12/20 00:13:20;;;;;;;7.80;3.80;;;;;;;3.73;79.07;100819.28;2047295;29;20294;-61
2022/12/20 00:14:23;;;;;;;7.03;3.90;;;;;;;3.73;79.35;100813.97;2041517;29;20291;-61
2022/12/20 00:15:31;;;;;;;6.83;3.77;;;;;;;3.73;79.54;100819.28;2044676;29;20307;-61
2022/12/20 00:16:34;;;;;;;7.03;3.60;;;;;;;3.75;79.11;100817.19;2035918;29;20287;-61
2022/12/20 00:17:36;;;;;;;10.15;3.50;;;;;;;3.77;79.52;100819.63;2041793;29;20283;-61
2022/12/20 00:18:42;;;;;;;6.53;3.20;;;;;;;3.78;79.47;100816.72;2033717;29;20300;-61
2022/12/20 00:19:44;;;;;;;5.78;3.03;;;;;;;3.79;79.17;100818.38;2032440;29;20780;-60
2022/12/20 00:20:49;;;;;;;7.53;3.20;;;;;;;3.79;79.35;100813.06;2034110;29;20292;-61
2022/12/20 00:21:54;;;;;;;8.15;3.10;;;;;;;3.79;79.60;100813.06;2032364;29;20649;-61
2022/12/20 00:22:59;;;;;;;4.90;2.75;;;;;;;3.81;79.72;100805.63;2015264;29;20305;-61
2022/12/20 00:24:05;;;;;;;7.65;3.30;;;;;;;3.80;79.40;100816.53;2024410;29;21614;-61
2022/12/20 00:25:09;;;;;;;6.38;3.13;;;;;;;3.79;79.46;100812.25;2034224;29;21064;-61
2022/12/20 00:26:20;;;;;;;6.97;2.95;;;;;;;3.78;79.81;100806.09;2044206;29;20338;-61
2022/12/20 00:27:31;;;;;;;9.30;3.58;;;;;;;3.76;79.34;100812.69;2042137;29;20314;-60
2022/12/20 00:28:37;;;;;;;5.63;2.80;;;;;;;3.74;79.48;100810.25;2043183;29;20307;-61
2022/12/20 00:29:42;;;;;;;5.90;3.15;;;;;;;3.76;80.27;100815.38;2036418;29;20756;-61
2022/12/20 00:30:51;;;;;;;5.85;2.85;;;;;;;3.74;79.61;100810.25;2021711;29;20642;-60
2022/12/20 00:31:55;;;;;;;5.13;2.90;;;;;;;3.69;79.87;100818.94;2023024;29;20363;-60
2022/12/20 00:33:02;;;;;;;7.70;2.93;;;;;;;3.71;80.04;100819.50;2037639;29;21913;-62
2022/12/20 00:34:04;;;;;;;5.23;2.80;;;;;;;3.70;80.34;100819.72;2036430;29;20295;-61
2022/12/20 00:35:07;;;;;;;6.87;2.97;;;;;;;3.72;80.28;100812.34;2036989;29;20880;-61
2022/12/20 00:36:10;;;;;;;5.00;3.10;;;;;;;3.75;80.95;100811.88;2043596;28;20361;-63
2022/12/20 00:37:12;;;;;;;5.50;2.90;;;;;;;3.78;80.36;100800.78;2043994;29;20314;-61
2022/12/20 00:38:18;;;;;;;5.70;2.67;;;;;;;3.76;80.71;100805.53;2031655;29;20304;-61
2022/12/20 00:39:25;;;;;;;5.03;2.63;;;;;;;3.78;80.62;100797.31;2030980;29;20322;-61
2022/12/20 00:40:29;;;;;;;7.43;2.80;;;;;;;3.80;80.51;100803.22;2036851;29;20302;-62
2022/12/20 00:41:35;;;;;;;6.37;2.63;;;;;;;3.80;80.60;100798.72;2029185;29;20300;-62
2022/12/20 00:42:38;;;;;;;5.75;2.78;;;;;;;3.80;81.01;100801.38;2029695;29;20308;-61
2022/12/20 00:43:43;;;;;;;4.77;3.23;;;;;;;3.83;80.55;100800.09;2029546;29;20296;-62
2022/12/20 00:44:46;;;;;;;6.63;3.10;;;;;;;3.82;80.82;100801.97;2036874;29;20310;-63
2022/12/20 00:45:49;;;;;;;6.27;2.77;;;;;;;3.82;81.10;100801.97;2036734;29;20295;-61
2022/12/20 00:46:55;;;;;;;6.37;3.17;;;;;;;3.84;80.78;100793.75;2044579;29;20298;-61
2022/12/20 00:47:58;;;;;;;5.25;2.40;;;;;;;3.86;80.85;100794.34;2043302;29;20298;-60
2022/12/20 00:49:03;;;;;;;5.63;2.60;;;;;;;3.88;81.14;100792.28;2036833;29;20704;-60
2022/12/20 00:50:08;;;;;;;5.67;2.83;;;;;;;3.90;80.91;100790.97;2037703;29;20916;-60
2022/12/20 00:51:14;;;;;;;6.07;2.73;;;;;;;3.91;81.02;100800.59;2043888;29;20310;-60
2022/12/20 00:52:19;;;;;;;6.20;2.90;;;;;;;3.93;80.86;100787.06;2036584;29;20307;-61
2022/12/20 00:53:22;;;;;;;7.93;2.90;;;;;;;3.93;80.82;100793.19;2030551;29;20296;-61
2022/12/20 00:54:24;;;;;;;5.47;2.63;;;;;;;3.93;81.32;100782.53;2028966;29;20307;-62
2022/12/20 00:55:28;;;;;;;5.90;3.00;;;;;;;3.96;80.82;100786.59;2035821;29;20318;-62
2022/12/20 00:56:30;;;;;;;5.72;2.80;;;;;;;3.95;81.09;100783.13;2030756;29;20310;-62
2022/12/20 00:57:34;;;;;;;6.40;2.20;;;;;;;3.95;80.77;100775.16;2025470;29;20308;-62
2022/12/20 00:58:38;;;;;;;3.90;2.45;;;;;;;3.95;81.16;100780.47;2044108;29;20303;-62
2022/12/20 00:59:41;;;;;;;4.70;2.33;;;;;;;3.95;81.23;100767.16;2036485;29;20306;-62
2022/12/20 01:00:44;;;;;;;6.20;2.27;;;;;;;3.95;81.23;100769.84;2035872;29;20310;-62
2022/12/20 01:01:47;;;;;;;3.53;2.03;;;;;;;3.97;81.17;100766.13;2036570;29;20294;-61
2022/12/20 01:02:51;;;;;;;4.30;2.53;;;;;;;3.99;81.58;100769.38;2036578;29;20347;-62
2022/12/20 01:03:53;;;;;;;4.03;1.90;;;;;;;3.99;81.00;100764.84;2037334;29;20802;-61
2022/12/20 01:04:56;;;;;;;4.78;2.33;;;;;;;4.02;81.54;100771.56;2036145;29;20303;-62
2022/12/20 01:06:02;;;;;;;5.10;2.15;;;;;;;4.03;81.38;100765.22;2036062;29;20307;-61
2022/12/20 01:07:07;;;;;;;4.60;2.47;;;;;;;4.05;81.23;100765.78;2036157;29;20322;-61
2022/12/20 01:08:09;;;;;;;3.47;2.07;;;;;;;4.06;81.18;100759.44;2036894;29;20779;-61
2022/12/20 01:09:12;;;;;;;4.57;2.47;;;;;;;4.07;81.21;100766.38;2037164;29;20329;-62
2022/12/20 01:10:16;;;;;;;4.22;2.40;;;;;;;4.07;81.58;100761.88;2037339;29;20299;-61
2022/12/20 01:11:22;;;;;;;6.47;2.60;;;;;;;4.08;81.05;100770.66;2036575;29;20306;-61
2022/12/20 01:12:24;;;;;;;6.85;2.88;;;;;;;4.09;81.39;100777.59;2029529;29;20300;-61
2022/12/20 01:13:28;;;;;;;5.55;2.70;;;;;;;4.09;81.75;100770.41;2035693;29;20395;-61
2022/12/20 01:14:33;;;;;;;4.78;2.10;;;;;;;4.11;81.34;100767.53;2028749;29;20338;-61
2022/12/20 01:15:38;;;;;;;5.90;2.40;;;;;;;4.12;81.18;100766.50;2028845;29;20311;-61
2022/12/20 01:16:45;;;;;;;4.75;2.40;;;;;;;4.13;81.32;100766.28;2036850;29;20298;-62
2022/12/20 01:17:50;;;;;;;4.10;2.58;;;;;;;4.12;81.32;100763.81;2036290;29;21027;-60
2022/12/20 01:18:52;;;;;;;6.18;2.40;;;;;;;4.12;81.60;100763.81;2036761;29;22068;-61
2022/12/20 01:19:55;;;;;;;5.70;2.37;;;;;;;4.11;81.59;100763.03;2028514;29;20303;-61
2022/12/20 01:21:08;;;;;;;3.85;2.33;;;;;;;4.12;81.85;100766.50;2013409;29;20308;-61
2022/12/20 01:22:13;;;;;;;6.57;2.80;;;;;;;4.13;81.23;100763.63;2030510;29;20295;-62
2022/12/20 01:23:15;;;;;;;5.05;2.45;;;;;;;4.14;81.37;100761.75;2029394;29;20621;-61
2022/12/20 01:24:25;;;;;;;4.95;2.08;;;;;;;4.14;81.90;100757.25;2034033;29;20310;-62
2022/12/20 01:25:27;;;;;;;4.95;2.25;;;;;;;4.16;81.55;100759.66;2028442;29;20291;-62
2022/12/20 01:26:30;;;;;;;4.32;2.35;;;;;;;4.18;81.79;100768.22;2015870;29;20761;-62
2022/12/20 01:27:35;;;;;;;4.50;2.28;;;;;;;4.20;81.96;100760.03;2015886;29;20301;-61
2022/12/20 01:28:39;;;;;;;4.85;2.35;;;;;;;4.23;81.52;100756.91;2021888;29;20307;-63
2022/12/20 01:29:41;;;;;;;4.50;2.50;;;;;;;4.25;81.94;100768.13;2013339;29;20300;-62
2022/12/20 01:30:48;;;;;;;4.13;2.20;;;;;;;4.26;81.79;100770.56;2013693;29;20305;-62
2022/12/20 01:31:56;;;;;;;4.57;2.30;;;;;;;4.23;81.43;100770.22;2015489;29;20301;-62
2022/12/20 01:33:00;;;;;;;5.32;2.28;;;;;;;4.24;81.53;100772.63;2022131;29;20048;-63
2022/12/20 01:34:05;;;;;;;5.32;2.30;;;;;;;4.26;81.58;100767.91;2037273;29;20291;-62
2022/12/20 01:35:09;;;;;;;5.18;2.72;;;;;;;4.26;81.32;100770.56;2044403;29;20299;-60
2022/12/20 01:36:24;;;;;;;4.03;2.33;;;;;;;4.28;81.86;100771.13;2036900;29;20291;-61
2022/12/20 01:37:28;;;;;;;3.55;2.20;;;;;;;4.26;81.75;100767.09;2029787;29;20411;-61
2022/12/20 01:38:32;;;;;;;3.25;2.00;;;;;;;4.26;81.92;100770.56;2034358;29;20942;-62
2022/12/20 01:39:35;;;;;;;7.07;2.35;;;;;;;4.28;81.31;100768.47;2035815;29;20303;-62
2022/12/20 01:40:39;;;;;;;5.72;2.50;;;;;;;4.29;82.07;100767.44;2028317;29;20351;-61
2022/12/20 01:41:42;;;;;;;3.97;2.45;;;;;;;4.29;81.85;100759.44;2022573;29;20862;-62
2022/12/20 01:42:45;;;;;;;5.07;2.30;;;;;;;4.31;81.21;100762.66;2030043;29;20295;-60
2022/12/20 01:43:47;;;;;;;5.45;2.28;;;;;;;4.31;81.86;100752.03;2036564;29;20806;-60
2022/12/20 01:44:53;;;;;;;6.30;2.25;;;;;;;4.32;82.08;100759.00;2044187;29;20897;-61
2022/12/20 01:45:58;;;;;;;4.15;2.30;;;;;;;4.34;81.56;100756.88;2036294;29;20291;-60
2022/12/20 01:47:02;;;;;;;6.13;2.47;;;;;;;4.35;81.82;100758.53;2028815;29;20303;-60
2022/12/20 01:48:05;;;;;;;5.72;2.60;;;;;;;4.35;81.44;100761.19;2036700;29;20302;-60
2022/12/20 01:49:18;;;;;;;4.63;2.35;;;;;;;4.37;81.85;100750.28;2036436;29;20395;-61
2022/12/20 01:50:26;;;;;;;4.03;2.50;;;;;;;4.36;81.62;100754.81;2030658;29;22190;-61
2022/12/20 01:51:35;;;;;;;5.47;2.60;;;;;;;4.38;81.74;100755.41;2029230;29;20311;-61
2022/12/20 01:52:49;;;;;;;4.75;2.63;;;;;;;4.40;81.86;100755.16;2020426;29;20293;-61
2022/12/20 01:53:57;;;;;;;4.90;2.78;;;;;;;4.41;81.96;100757.59;2031301;29;20299;-61
2022/12/20 01:55:04;;;;;;;7.40;2.70;;;;;;;4.44;82.12;100753.63;2029216;29;20323;-61
2022/12/20 01:56:09;;;;;;;4.78;2.47;;;;;;;4.47;81.44;100760.34;2036941;29;20303;-61
2022/12/20 01:57:20;;;;;;;4.40;2.38;;;;;;;4.49;81.73;100755.63;2032875;29;20676;-61
2022/12/20 01:58:24;;;;;;;4.88;2.63;;;;;;;4.47;81.62;100763.00;2035735;29;20319;-61
2022/12/20 01:59:30;;;;;;;7.57;2.83;;;;;;;4.46;81.68;100761.41;2044036;29;20675;-61
2022/12/20 02:00:32;;;;;;;4.95;2.72;;;;;;;4.45;81.36;100757.13;2028993;29;20311;-61
2022/12/20 02:01:37;;;;;;;6.07;2.92;;;;;;;4.39;81.44;100749.03;2029771;29;20300;-61
2022/12/20 02:02:46;;;;;;;5.38;2.25;;;;;;;4.38;81.83;100746.56;2037055;29;20382;-61
2022/12/20 02:03:50;;;;;;;4.97;2.70;;;;;;;4.39;81.48;100750.88;2036447;29;20299;-61
2022/12/20 02:04:52;;;;;;;4.63;2.53;;;;;;;4.39;81.81;100733.06;2028781;29;20807;-61
2022/12/20 02:05:54;;;;;;;4.50;2.33;;;;;;;4.40;81.71;100745.31;2036096;29;20310;-61
2022/12/20 02:06:57;;;;;;;4.15;2.40;;;;;;;4.41;82.28;100738.13;2028609;29;20296;-61
2022/12/20 02:08:02;;;;;;;4.75;2.35;;;;;;;4.41;82.19;100733.63;2021813;29;20725;-61
2022/12/20 02:09:08;;;;;;;4.63;2.85;;;;;;;4.41;82.33;100740.78;2029511;29;20288;-61
2022/12/20 02:10:13;;;;;;;5.07;2.78;;;;;;;4.40;82.06;100731.19;2035652;29;20295;-61
2022/12/20 02:11:38;;;;;;;6.45;2.63;;;;;;;4.39;82.46;100726.91;2037557;29;20295;-61
2022/12/20 02:12:42;;;;;;;6.32;2.85;;;;;;;4.40;82.60;100732.00;2040191;29;20302;-61
2022/12/20 02:14:00;;;;;;;5.70;2.70;;;;;;;4.40;82.53;100739.97;2043543;29;20301;-61
2022/12/20 02:15:04;;;;;;;5.60;2.88;;;;;;;4.39;81.91;100738.38;2029942;29;20985;-60
2022/12/20 02:16:06;;;;;;;6.93;2.88;;;;;;;4.35;82.01;100733.72;2019896;29;20304;-61
2022/12/20 02:17:32;;;;;;;5.05;2.92;;;;;;;4.33;82.06;100743.81;2037687;29;20305;-61
2022/12/20 02:18:46;;;;;;;5.30;2.13;;;;;;;4.32;82.13;100743.00;2030640;29;20303;-61
2022/12/20 02:19:48;;;;;;;4.38;2.60;;;;;;;4.31;82.11;100736.06;2025316;29;20740;-65
2022/12/20 02:21:05;;;;;;;5.10;2.58;;;;;;;4.35;82.89;100737.22;2036833;29;20304;-62
2022/12/20 02:22:43;;;;;;;6.55;2.70;;;;;;;4.38;82.76;100731.44;2036486;29;20302;-62
2022/12/20 02:24:09;;;;;;;4.45;2.72;;;;;;;4.41;82.98;100727.47;2036299;29;20687;-62
2022/12/20 02:25:25;;;;;;;7.65;2.63;;;;;;;4.45;82.27;100727.84;2031461;29;20675;-62
2022/12/20 02:26:59;;;;;;;4.05;2.60;;;;;;;4.45;82.67;100730.50;2021983;29;20308;-62
2022/12/20 02:28:15;;;;;;;6.18;2.83;;;;;;;4.46;82.85;100726.78;2037256;29;20798;-62
2022/12/20 02:29:53;;;;;;;4.50;2.47;;;;;;;4.47;82.24;100731.06;2026612;29;20307;-62
2022/12/20 02:30:59;;;;;;;4.97;2.60;;;;;;;4.44;82.51;100729.69;2030219;29;20271;-62
2022/12/20 02:32:14;;;;;;;6.38;2.85;;;;;;;4.43;82.17;100725.41;2029156;29;20306;-62
2022/12/20 02:33:18;;;;;;;6.72;3.28;;;;;;;4.43;82.88;100725.41;2030405;29;20292;-62
2022/12/20 02:34:23;;;;;;;6.70;3.42;;;;;;;4.44;82.50;100718.22;2028795;29;20300;-62
2022/12/20 02:35:28;;;;;;;7.70;3.40;;;;;;;4.44;82.66;100719.03;2021261;29;20308;-62
2022/12/20 02:36:32;;;;;;;5.03;3.10;;;;;;;4.46;82.72;100721.47;2024015;29;20820;-62
2022/12/20 02:37:34;;;;;;;6.35;3.40;;;;;;;4.46;82.81;100722.28;2038576;29;20294;-61
2022/12/20 02:38:38;;;;;;;5.00;2.90;;;;;;;4.48;82.85;100730.84;2035535;29;20299;-62
2022/12/20 02:39:43;;;;;;;8.68;3.60;;;;;;;4.45;82.99;100731.31;2036560;29;20287;-62
2022/12/20 02:40:46;;;;;;;5.13;3.20;;;;;;;4.39;82.35;100743.69;2036878;29;20306;-62
2022/12/20 02:41:54;;;;;;;7.68;3.25;;;;;;;4.39;82.70;100740.22;2036616;29;20294;-61
2022/12/20 02:43:00;;;;;;;5.80;2.95;;;;;;;4.38;82.73;100749.25;2029347;29;20295;-62
2022/12/20 02:45:35;;;;;;;7.40;2.95;;;;;;;4.34;82.98;100740.91;2030142;29;20306;-62
2022/12/20 02:46:40;;;;;;;7.13;3.72;;;;;;;4.35;83.45;100731.91;2029498;29;20300;-62
2022/12/20 02:47:54;;;;;;;9.15;4.25;;;;;;;4.37;82.95;100739.66;2035926;29;20384;-61
2022/12/20 02:49:02;;;;;;;6.05;3.50;;;;;;;4.39;83.25;100738.38;2036130;29;20298;-61
2022/12/20 02:50:07;;;;;;;7.97;3.65;;;;;;;4.43;83.47;100744.03;2028498;29;20296;-61
2022/12/20 02:51:11;;;;;;;11.13;3.85;;;;;;;4.44;83.73;100737.66;2029006;29;20605;-61
2022/12/20 02:52:13;;;;;;;9.25;3.75;;;;;;;4.46;83.41;100734.78;2043829;28;20295;-61
2022/12/20 02:53:16;;;;;;;8.75;3.80;;;;;;;4.48;83.80;100735.38;2028493;29;20300;-61
2022/12/20 02:54:21;;;;;;;8.13;4.20;;;;;;;4.43;83.05;100722.75;2028382;29;20830;-61
2022/12/20 02:55:53;;;;;;;7.68;3.75;;;;;;;4.41;83.59;100720.31;2028079;29;20308;-62
2022/12/20 02:57:08;;;;;;;9.15;4.22;;;;;;;4.41;83.34;100725.66;2021344;29;20300;-61
2022/12/20 02:58:20;;;;;;;8.88;4.38;;;;;;;4.40;83.90;100721.34;2030867;29;20300;-61
2022/12/20 02:59:29;;;;;;;10.85;4.15;;;;;;;4.41;83.70;100720.31;2036279;29;20675;-62
2022/12/20 03:00:37;;;;;;;8.57;4.13;;;;;;;4.41;83.42;100723.00;2021582;29;20343;-62
2022/12/20 03:01:44;;;;;;;7.32;4.00;;;;;;;4.38;83.24;100718.13;2022169;29;20045;-62
2022/12/20 03:04:12;;;;;;;9.63;4.80;;;;;;;4.39;84.06;100710.94;2039866;29;20357;-61
2022/12/20 03:05:15;;;;;;;10.65;4.18;;;;;;;4.39;83.92;100706.44;2035833;29;21066;-62
2022/12/20 03:06:17;;;;;;;7.97;4.15;;;;;;;4.42;83.90;100705.16;2020336;29;20300;-62
2022/12/20 03:07:18;;;;;;;11.80;5.20;;;;;;;4.43;84.22;100696.13;2020031;29;20308;-61
2022/12/20 03:08:22;;;;;;;9.50;4.68;;;;;;;4.45;83.89;100710.03;2027976;29;20315;-62
2022/12/20 03:09:29;;;;;;;10.38;5.10;;;;;;;4.48;84.63;100708.75;2036787;29;20382;-61
2022/12/20 03:10:33;;;;;;;11.57;4.95;;;;;;;4.51;83.84;100698.44;2035117;29;20318;-61
2022/12/20 03:11:35;;;;;;;11.13;5.25;;;;;;;4.54;83.86;100691.81;2021245;29;20796;-62
2022/12/20 03:12:38;;;;;;;10.15;4.45;;;;;;;4.52;84.10;100697.38;2012864;29;20309;-62
2022/12/20 03:13:39;;;;;;;10.50;4.82;;;;;;;4.52;84.30;100704.56;2020809;29;20312;-62
2022/12/20 03:14:44;;;;;;;9.60;5.10;;;;;;;4.51;83.99;100692.28;2028739;29;20303;-61
2022/12/20 03:15:48;;;;;;;10.55;5.07;;;;;;;4.50;84.39;100701.31;2036385;29;20310;-61
2022/12/20 03:16:50;;;;;;;14.35;5.50;;;;;;;4.46;84.21;100700.97;2027900;29;20300;-61
2022/12/20 03:17:53;;;;;;;13.73;5.32;;;;;;;4.46;84.34;100705.50;2028742;29;20842;-62
2022/12/20 03:18:55;;;;;;;14.38;5.90;;;;;;;4.44;84.51;100703.06;2036104;29;20303;-61
2022/12/20 03:19:57;;;;;;;11.30;5.45;;;;;;;4.43;84.63;100701.44;2035765;29;20307;-62
2022/12/20 03:21:02;;;;;;;15.30;6.85;;;;;;;4.45;84.81;100709.22;2043590;29;20291;-62
2022/12/20 03:22:04;;;;;;;12.25;6.32;;;;;;;4.44;84.79;100708.38;2042874;29;20299;-62
2022/12/20 03:23:10;;;;;;;14.07;7.10;;;;;;;4.42;84.75;100699.84;2035804;29;20675;-62
2022/12/20 03:24:15;;;;;;;13.38;7.05;;;;;;;4.41;84.45;100699.03;2036253;29;20299;-62
2022/12/20 03:25:18;;;;;;;18.40;7.47;;;;;;;4.37;84.37;100697.84;2036107;29;20323;-62
2022/12/20 03:26:20;;;;;;;14.77;6.72;;;;;;;4.39;85.19;100698.44;2030875;29;21371;-62
2022/12/20 03:27:29;;;;;;;13.93;6.40;;;;;;;4.40;84.79;100681.41;2029303;29;20303;-62
2022/12/20 03:28:33;;;;;;;14.40;6.50;;;;;;;4.41;84.69;100690.22;2028432;29;20331;-62
2022/12/20 03:29:37;;;;;;;13.65;6.53;;;;;;;4.40;85.40;100699.25;2033032;29;20876;-62
2022/12/20 03:30:40;;;;;;;14.50;6.88;;;;;;;4.40;85.23;100696.59;2046235;29;20299;-62
2022/12/20 03:31:44;;;;;;;12.48;6.47;;;;;;;4.41;85.01;100693.72;2037390;29;20299;-62
2022/12/20 03:32:46;;;;;;;15.88;6.50;;;;;;;4.48;85.62;100698.09;2021780;29;20303;-62
2022/12/20 03:33:48;;;;;;;13.60;6.88;;;;;;;4.49;85.61;100695.19;2022316;29;20300;-61
2022/12/20 03:34:50;;;;;;;15.73;6.90;;;;;;;4.52;85.29;100691.25;2037216;29;20330;-62
2022/12/20 03:36:01;;;;;;;15.18;6.32;;;;;;;4.55;85.89;100688.13;2034684;28;20303;-62
2022/12/20 03:37:05;;;;;;;14.90;5.93;;;;;;;4.56;85.34;100689.72;2026493;29;20054;-62
2022/12/20 03:38:08;;;;;;;13.13;6.15;;;;;;;4.58;85.65;100684.97;2018541;29;20308;-62
2022/12/20 03:39:11;;;;;;;16.10;6.60;;;;;;;4.60;85.13;100690.88;2026261;29;20303;-61
2022/12/20 03:40:16;;;;;;;12.88;6.38;;;;;;;4.60;85.24;100685.53;2045181;29;20798;-61
2022/12/20 03:41:24;;;;;;;12.38;5.68;;;;;;;4.58;85.17;100687.66;2045052;29;20298;-61
2022/12/20 03:42:28;;;;;;;16.92;7.10;;;;;;;4.54;85.72;100700.63;2037607;29;20307;-62
2022/12/20 03:43:31;;;;;;;17.27;6.55;;;;;;;4.55;86.01;100682.78;2030266;29;20705;-62
2022/12/20 03:44:36;;;;;;;16.73;7.15;;;;;;;4.56;85.72;100689.72;2029366;29;20850;-62
2022/12/20 03:45:38;;;;;;;12.88;6.10;;;;;;;4.56;85.74;100692.38;2029820;29;20300;-62
2022/12/20 03:46:41;;;;;;;14.45;6.68;;;;;;;4.58;86.14;100688.44;2029621;29;22131;-62
2022/12/20 03:47:45;;;;;;;14.43;6.95;;;;;;;4.60;85.84;100682.88;2037100;29;22289;-62
2022/12/20 03:48:48;;;;;;;17.83;7.22;;;;;;;4.56;85.88;100684.41;2037356;29;20664;-62
2022/12/20 03:49:53;;;;;;;18.25;7.00;;;;;;;4.56;85.55;100687.06;2022135;29;20300;-62
2022/12/20 03:50:56;;;;;;;15.75;6.65;;;;;;;4.55;86.01;100688.91;2022851;29;20308;-61
2022/12/20 03:51:58;;;;;;;17.75;7.60;;;;;;;4.55;86.08;100694.25;2029698;29;20292;-63
2022/12/20 03:53:01;;;;;;;17.52;7.18;;;;;;;4.57;86.42;100691.34;2032061;29;20310;-61
2022/12/20 03:54:07;;;;;;;13.98;6.80;;;;;;;4.57;85.72;100699.31;2021817;29;20307;-61
2022/12/20 03:55:30;;;;;;;17.80;6.72;;;;;;;4.59;86.40;100698.06;2027620;29;20295;-61
2022/12/20 03:56:34;;;;;;;15.73;6.72;;;;;;;4.51;86.05;100693.09;2037264;29;20307;-61
2022/12/20 03:57:38;;;;;;;19.45;8.02;;;;;;;4.48;86.24;100696.25;2036928;29;20284;-61
2022/12/20 03:58:44;;;;;;;15.73;6.32;;;;;;;4.50;85.91;100696.00;2028968;29;20307;-60
2022/12/20 03:59:49;;;;;;;15.60;6.28;;;;;;;4.53;85.89;100700.84;2029815;29;20354;-60
2022/12/20 04:00:53;;;;;;;14.35;6.82;;;;;;;4.52;86.16;100699.25;2041352;29;20767;-60
2022/12/20 04:02:26;;;;;;;17.63;7.40;;;;;;;4.50;86.39;100691.47;2027038;29;20303;-60
2022/12/20 04:03:32;;;;;;;14.65;6.63;;;;;;;4.49;86.34;100697.03;2029941;29;20300;-60
2022/12/20 04:04:37;;;;;;;17.80;7.60;;;;;;;4.46;86.44;100686.88;2021812;29;20394;-60
2022/12/20 04:05:41;;;;;;;15.60;7.88;;;;;;;4.48;86.97;100693.56;2026176;29;20984;-60
2022/12/20 04:06:44;;;;;;;16.88;7.40;;;;;;;4.51;86.66;100685.13;2036409;29;20369;-60
2022/12/20 04:07:49;;;;;;;18.67;7.68;;;;;;;4.56;86.65;100689.72;2030637;29;20311;-60
2022/12/20 04:08:51;;;;;;;17.45;7.47;;;;;;;4.60;87.02;100688.19;2029479;29;20741;-61
2022/12/20 04:10:01;;;;;;;17.42;7.90;;;;;;;4.58;87.01;100682.31;2031388;29;21080;-60
2022/12/20 04:11:16;;;;;;;16.77;6.82;;;;;;;4.58;86.38;100684.97;2028793;29;20424;-60
2022/12/20 04:12:39;;;;;;;17.15;7.30;;;;;;;4.57;86.74;100673.53;2037624;29;20306;-61
2022/12/20 04:13:52;;;;;;;17.13;6.70;;;;;;;4.59;86.56;100678.59;2037151;29;20629;-60
2022/12/20 04:14:54;;;;;;;15.75;6.97;;;;;;;4.62;86.54;100678.13;2037242;29;20307;-60
2022/12/20 04:15:57;;;;;;;15.73;7.60;;;;;;;4.63;86.57;100679.75;2037016;29;20299;-62
2022/12/20 04:17:02;;;;;;;16.23;6.82;;;;;;;4.63;87.16;100679.75;2029395;29;20739;-62
2022/12/20 04:18:05;;;;;;;15.43;7.10;;;;;;;4.65;86.50;100685.66;2028583;29;20316;-62
2022/12/20 04:19:07;;;;;;;15.50;7.07;;;;;;;4.64;87.04;100684.03;2036978;29;20299;-62
2022/12/20 04:20:19;;;;;;;12.88;6.68;;;;;;;4.62;86.50;100689.59;2044478;29;20674;-63
2022/12/20 04:21:24;;;;;;;;;;;;;;;4.60;86.66;100678.38;2045271;28;20306;-63
2022/12/20 04:22:29;;;;;;;18.35;6.88;;;;;;;4.57;86.44;100686.00;2029671;29;19923;-63
2022/12/20 04:23:39;;;;;;;14.85;7.22;;;;;;;4.56;87.07;100684.41;2023199;29;20380;-62
2022/12/20 04:24:42;;;;;;;18.35;7.72;;;;;;;4.48;86.54;100687.44;2038606;29;20039;-62
2022/12/20 04:25:53;;;;;;;17.58;7.22;;;;;;;4.46;86.44;100685.00;2044131;29;20310;-62
2022/12/20 04:26:55;;;;;;;18.17;7.55;;;;;;;4.51;86.83;100682.44;2036203;29;20291;-62
2022/12/20 04:27:58;;;;;;;17.17;8.23;;;;;;;4.52;86.73;100686.72;2031905;29;20295;-62
2022/12/20 04:29:00;;;;;;;17.42;7.82;;;;;;;4.54;86.80;100683.81;2037310;29;20295;-62
2022/12/20 04:30:02;;;;;;;15.00;7.20;;;;;;;4.57;87.04;100681.53;2037177;29;20303;-62
2022/12/20 04:31:05;;;;;;;18.42;7.90;;;;;;;4.59;87.46;100682.06;2036954;29;20300;-63
2022/12/20 04:32:11;;;;;;;19.20;7.43;;;;;;;4.58;86.83;100685.78;2029225;29;20307;-62
2022/12/20 04:33:13;;;;;;;17.25;7.80;;;;;;;4.61;87.15;100684.50;2028799;29;20792;-63
2022/12/20 04:34:16;;;;;;;20.08;8.65;;;;;;;4.63;87.23;100685.91;2029952;29;20330;-62
2022/12/20 04:35:19;;;;;;;18.80;7.95;;;;;;;4.65;87.03;100683.00;2034041;29;20300;-62
2022/12/20 04:36:23;;;;;;;17.60;7.88;;;;;;;4.66;87.71;100689.94;2026352;29;20299;-63
2022/12/20 04:37:30;;;;;;;16.23;7.30;;;;;;;4.67;86.96;100685.44;2029745;29;20300;-62
2022/12/20 04:38:35;;;;;;;19.25;8.15;;;;;;;4.68;87.30;100682.53;2036594;29;20302;-62
2022/12/20 04:39:40;;;;;;;22.23;9.30;;;;;;;4.70;87.73;100685.75;2036953;29;20648;-61
2022/12/20 04:40:57;;;;;;;24.15;8.25;;;;;;;4.73;87.18;100674.63;2041703;28;20770;-61
2022/12/20 04:42:01;;;;;;;21.10;8.15;;;;;;;4.75;87.21;100683.19;2028833;29;20291;-62
2022/12/20 04:43:03;;;;;;;20.45;8.45;;;;;;;4.76;87.36;100678.66;2021595;29;20304;-62
2022/12/20 04:44:06;;;;;;;20.65;7.68;;;;;;;4.71;87.18;100676.72;2037140;29;20775;-62
2022/12/20 04:45:12;;;;;;;20.35;8.88;;;;;;;4.67;86.96;100680.09;2029123;29;20302;-61
2022/12/20 04:46:14;;;;;;;23.27;9.02;;;;;;;4.65;87.57;100683.78;2028960;29;20303;-61
2022/12/20 04:47:16;;;;;;;22.00;8.95;;;;;;;4.67;86.98;100686.25;2021366;29;20380;-61
2022/12/20 04:48:19;;;;;;;23.65;9.20;;;;;;;4.71;87.35;100681.25;2010629;29;20305;-62
2022/12/20 04:49:22;;;;;;;23.60;9.60;;;;;;;4.69;87.17;100678.78;2029592;29;20755;-61
2022/12/20 04:50:24;;;;;;;21.20;9.15;;;;;;;4.68;87.73;100673.72;2021404;29;20299;-61
2022/12/20 04:51:27;;;;;;;19.15;8.70;;;;;;;4.69;87.29;100675.34;2023625;29;20300;-62
2022/12/20 04:53:51;;;;;;;21.48;9.40;;;;;;;4.68;87.88;100666.53;2039339;29;20306;-62
2022/12/20 04:55:09;;;;;;;25.92;9.85;;;;;;;4.70;87.24;100668.94;2036780;29;20295;-61
2022/12/20 04:56:11;;;;;;;24.30;9.90;;;;;;;4.71;88.00;100662.59;2028717;29;20383;-61
2022/12/20 04:57:13;;;;;;;23.67;9.60;;;;;;;4.73;87.73;100663.16;2036567;29;20311;-61
2022/12/20 04:58:15;;;;;;;24.27;9.82;;;;;;;4.72;88.03;100661.53;2037239;29;20900;-61
2022/12/20 04:59:20;;;;;;;25.70;10.18;;;;;;;4.68;87.53;100666.53;2028865;29;20292;-61
2022/12/20 05:00:26;;;;;;;23.38;9.52;;;;;;;4.66;87.66;100657.97;2027241;29;20638;-61
2022/12/20 05:01:36;;;;;;;26.15;8.82;;;;;;;4.66;87.97;100652.63;2029731;29;20319;-61
2022/12/20 05:02:39;;;;;;;26.60;10.32;;;;;;;4.71;87.58;100659.94;2028867;29;20311;-62
2022/12/20 05:03:45;;;;;;;29.67;11.25;;;;;;;4.73;87.44;100671.97;2023908;29;20810;-62
2022/12/20 05:04:49;;;;;;;26.08;10.43;;;;;;;4.74;87.96;100654.94;2023979;29;20808;-62
2022/12/20 05:05:52;;;;;;;29.15;10.65;;;;;;;4.77;87.62;100662.47;2022600;29;20288;-62
2022/12/20 05:06:55;;;;;;;31.48;10.57;;;;;;;4.76;88.03;100660.84;2029042;29;21105;-62
2022/12/20 05:07:58;;;;;;;26.35;10.65;;;;;;;4.80;87.97;100659.31;2044690;29;20302;-62
2022/12/20 05:09:00;;;;;;;24.08;10.20;;;;;;;4.84;88.24;100662.31;2044632;29;20347;-62
2022/12/20 05:10:10;;;;;;;25.58;9.65;;;;;;;4.87;88.44;100659.19;2043976;29;20298;-62
2022/12/20 05:11:14;;;;;;;25.50;9.38;;;;;;;4.88;88.38;100653.59;2037230;29;20311;-62
2022/12/20 05:12:18;;;;;;;24.35;9.13;;;;;;;4.88;87.57;100658.91;2036935;29;20318;-62